sensor_id;sensor_type;location;lat;lon;timestamp;pressure;altitude;pressure_sealevel;temperature;humidity
24486;BME280;13449;49.374;8.584;2022-12-10T00:01:13;99491.19;;;1.62;100.00
24486;BME280;13449;49.374;8.584;2022-12-10T00:03:43;99495.69;;;1.62;100.00
24486;BME280;13449;49.374;8.584;2022-12-10T00:06:17;99497.56;;;1.61;100.00
24486;BME280;13449;49.374;8.584;2022-12-10T00:08:46;99491.34;;;1.61;100.00
24486;BME280;13449;49.374;8.584;2022-12-10T00:11:14;99485.13;;;1.60;100.00
24486;BME280;13449;49.374;8.584;2022-12-10T00:13:41;99486.97;;;1.60;100.00
24486;BME280;13449;49.374;8.584;2022-12-10T00:16:10;99480.75;;;1.59;100.00
24486;BME280;13449;49.374;8.584;2022-12-10T00:18:40;99487.81;;;1.60;100.00
24486;BME280;13449;49.374;8.584;2022-12-10T00:21:09;99485.13;;;1.60;100.00
24486;BME280;13449;49.374;8.584;2022-12-10T00:23:36;99488.81;;;1.59;100.00
24486;BME280;13449;49.374;8.584;2022-12-10T00:26:09;99488.66;;;1.61;100.00
24486;BME280;13449;49.374;8.584;2022-12-10T00:29:05;99485.97;;;1.61;100.00
24486;BME280;13449;49.374;8.584;2022-12-10T00:31:36;99479.75;;;1.60;100.00
24486;BME280;13449;49.374;8.584;2022-12-10T00:34:06;99487.66;;;1.62;100.00
24486;BME280;13449;49.374;8.584;2022-12-10T00:36:36;99489.50;;;1.61;100.00
24486;BME280;13449;49.374;8.584;2022-12-10T00:39:03;99493.88;;;1.62;100.00
24486;BME280;13449;49.374;8.584;2022-12-10T00:41:30;99485.81;;;1.62;100.00
24486;BME280;13449;49.374;8.584;2022-12-10T00:43:57;99488.50;;;1.62;100.00
24486;BME280;13449;49.374;8.584;2022-12-10T00:46:23;99481.59;;;1.60;100.00
24486;BME280;13449;49.374;8.584;2022-12-10T00:48:50;99485.81;;;1.62;100.00
24486;BME280;13449;49.374;8.584;2022-12-10T00:51:22;99480.44;;;1.62;100.00
24486;BME280;13449;49.374;8.584;2022-12-10T00:53:50;99492.03;;;1.63;100.00
24486;BME280;13449;49.374;8.584;2022-12-10T00:56:19;99490.88;;;1.65;100.00
24486;BME280;13449;49.374;8.584;2022-12-10T00:58:47;99494.56;;;1.64;100.00
24486;BME280;13449;49.374;8.584;2022-12-10T01:01:38;99495.44;;;1.65;100.00
24486;BME280;13449;49.374;8.584;2022-12-10T01:04:10;99495.25;;;1.66;100.00
24486;BME280;13449;49.374;8.584;2022-12-10T01:07:03;99497.94;;;1.66;100.00
24486;BME280;13449;49.374;8.584;2022-12-10T01:09:36;99496.09;;;1.67;100.00
24486;BME280;13449;49.374;8.584;2022-12-10T01:12:03;99498.78;;;1.67;100.00
24486;BME280;13449;49.374;8.584;2022-12-10T01:14:31;99504.28;;;1.65;100.00
24486;BME280;13449;49.374;8.584;2022-12-10T01:17:01;99505.69;;;1.69;100.00
24486;BME280;13449;49.374;8.584;2022-12-10T01:19:32;99501.00;;;1.71;100.00
24486;BME280;13449;49.374;8.584;2022-12-10T01:21:59;99503.69;;;1.71;100.00
24486;BME280;13449;49.374;8.584;2022-12-10T01:24:29;99511.91;;;1.70;100.00
24486;BME280;13449;49.374;8.584;2022-12-10T01:26:56;99512.75;;;1.70;100.00
24486;BME280;13449;49.374;8.584;2022-12-10T01:29:23;99513.75;;;1.69;100.00
24486;BME280;13449;49.374;8.584;2022-12-10T01:31:51;99517.44;;;1.68;100.00
24486;BME280;13449;49.374;8.584;2022-12-10T01:34:18;99521.13;;;1.67;100.00
24486;BME280;13449;49.374;8.584;2022-12-10T01:36:48;99524.66;;;1.68;100.00
24486;BME280;13449;49.374;8.584;2022-12-10T01:39:16;99528.47;;;1.65;100.00
24486;BME280;13449;49.374;8.584;2022-12-10T01:41:53;99530.16;;;1.66;100.00
24486;BME280;13449;49.374;8.584;2022-12-10T01:46:49;99527.78;;;1.63;100.00
24486;BME280;13449;49.374;8.584;2022-12-10T01:49:27;99527.78;;;1.63;100.00
24486;BME280;13449;49.374;8.584;2022-12-10T01:52:00;99539.53;;;1.62;100.00
24486;BME280;13449;49.374;8.584;2022-12-10T01:54:31;99532.50;;;1.61;100.00
24486;BME280;13449;49.374;8.584;2022-12-10T01:59:30;99537.88;;;1.61;100.00
24486;BME280;13449;49.374;8.584;2022-12-10T02:05:08;99543.06;;;1.63;100.00
24486;BME280;13449;49.374;8.584;2022-12-10T02:07:51;99541.53;;;1.60;100.00
24486;BME280;13449;49.374;8.584;2022-12-10T02:12:53;99549.75;;;1.59;100.00
24486;BME280;13449;49.374;8.584;2022-12-10T02:15:27;99548.22;;;1.56;100.00
24486;BME280;13449;49.374;8.584;2022-12-10T02:18:03;99543.81;;;1.55;100.00
24486;BME280;13449;49.374;8.584;2022-12-10T02:20:36;99545.84;;;1.53;100.00
24486;BME280;13449;49.374;8.584;2022-12-10T02:25:59;99557.72;;;1.51;100.00
24486;BME280;13449;49.374;8.584;2022-12-10T02:31:24;99541.06;;;1.47;100.00
24486;BME280;13449;49.374;8.584;2022-12-10T02:33:55;99551.13;;;1.45;100.00
24486;BME280;13449;49.374;8.584;2022-12-10T02:36:26;99539.66;;;1.43;100.00
24486;BME280;13449;49.374;8.584;2022-12-10T02:38:56;99534.28;;;1.43;100.00
24486;BME280;13449;49.374;8.584;2022-12-10T02:41:35;99530.06;;;1.40;100.00
24486;BME280;13449;49.374;8.584;2022-12-10T02:44:07;99536.59;;;1.38;100.00
24486;BME280;13449;49.374;8.584;2022-12-10T02:46:36;99534.75;;;1.38;100.00
24486;BME280;13449;49.374;8.584;2022-12-10T02:49:08;99537.59;;;1.37;100.00
24486;BME280;13449;49.374;8.584;2022-12-10T02:51:35;99540.13;;;1.38;100.00
24486;BME280;13449;49.374;8.584;2022-12-10T02:54:06;99534.91;;;1.37;100.00
24486;BME280;13449;49.374;8.584;2022-12-10T02:56:37;99533.50;;;1.33;100.00
24486;BME280;13449;49.374;8.584;2022-12-10T03:04:37;99533.81;;;1.30;100.00
24486;BME280;13449;49.374;8.584;2022-12-10T03:07:11;99532.97;;;1.29;100.00
24486;BME280;13449;49.374;8.584;2022-12-10T03:09:47;99526.06;;;1.27;100.00
24486;BME280;13449;49.374;8.584;2022-12-10T03:12:21;99529.59;;;1.27;100.00
24486;BME280;13449;49.374;8.584;2022-12-10T03:14:50;99528.91;;;1.25;100.00
24486;BME280;13449;49.374;8.584;2022-12-10T03:17:17;99525.66;;;1.22;100.00
24486;BME280;13449;49.374;8.584;2022-12-10T03:19:49;99526.66;;;1.21;100.00
24486;BME280;13449;49.374;8.584;2022-12-10T03:22:19;99527.69;;;1.20;100.00
24486;BME280;13449;49.374;8.584;2022-12-10T03:24:47;99523.97;;;1.21;100.00
24486;BME280;13449;49.374;8.584;2022-12-10T03:27:15;99515.63;;;1.24;100.00
24486;BME280;13449;49.374;8.584;2022-12-10T03:29:50;99518.59;;;1.21;100.00
24486;BME280;13449;49.374;8.584;2022-12-10T03:32:19;99522.56;;;1.17;100.00
24486;BME280;13449;49.374;8.584;2022-12-10T03:34:47;99513.00;;;1.14;100.00
24486;BME280;13449;49.374;8.584;2022-12-10T03:37:15;99513.00;;;1.14;100.00
24486;BME280;13449;49.374;8.584;2022-12-10T03:39:42;99520.06;;;1.15;100.00
24486;BME280;13449;49.374;8.584;2022-12-10T03:42:11;99522.88;;;1.14;100.00
24486;BME280;13449;49.374;8.584;2022-12-10T03:44:38;99527.41;;;1.13;100.00
24486;BME280;13449;49.374;8.584;2022-12-10T03:47:12;99529.09;;;1.14;100.00
24486;BME280;13449;49.374;8.584;2022-12-10T03:49:41;99523.88;;;1.13;100.00
24486;BME280;13449;49.374;8.584;2022-12-10T03:52:08;99523.88;;;1.13;100.00
24486;BME280;13449;49.374;8.584;2022-12-10T03:54:35;99522.34;;;1.10;100.00
24486;BME280;13449;49.374;8.584;2022-12-10T03:57:04;99526.00;;;1.09;100.00
24486;BME280;13449;49.374;8.584;2022-12-10T03:59:30;99524.34;;;1.08;100.00
24486;BME280;13449;49.374;8.584;2022-12-10T04:01:57;99528.69;;;1.09;100.00
24486;BME280;13449;49.374;8.584;2022-12-10T04:04:26;99537.59;;;1.10;100.00
24486;BME280;13449;49.374;8.584;2022-12-10T04:06:53;99538.44;;;1.10;100.00
24486;BME280;13449;49.374;8.584;2022-12-10T04:09:20;99532.22;;;1.10;100.00
24486;BME280;13449;49.374;8.584;2022-12-10T04:11:46;99536.75;;;1.09;100.00
24486;BME280;13449;49.374;8.584;2022-12-10T04:14:14;99535.22;;;1.07;100.00
24486;BME280;13449;49.374;8.584;2022-12-10T04:16:59;99534.38;;;1.06;100.00
24486;BME280;13449;49.374;8.584;2022-12-10T04:19:26;99533.53;;;1.06;100.00
24486;BME280;13449;49.374;8.584;2022-12-10T04:21:52;99533.53;;;1.06;100.00
24486;BME280;13449;49.374;8.584;2022-12-10T04:24:37;99539.91;;;1.05;100.00
24486;BME280;13449;49.374;8.584;2022-12-10T04:27:23;99534.53;;;1.05;100.00
24486;BME280;13449;49.374;8.584;2022-12-10T04:29:56;99543.28;;;1.07;100.00
24486;BME280;13449;49.374;8.584;2022-12-10T04:32:27;99539.91;;;1.05;100.00
24486;BME280;13449;49.374;8.584;2022-12-10T04:34:54;99549.63;;;1.06;100.00
24486;BME280;13449;49.374;8.584;2022-12-10T04:37:21;99550.66;;;1.05;100.00
24486;BME280;13449;49.374;8.584;2022-12-10T04:39:49;99555.16;;;1.04;100.00
24486;BME280;13449;49.374;8.584;2022-12-10T04:42:16;99557.84;;;1.04;100.00
24486;BME280;13449;49.374;8.584;2022-12-10T04:44:45;99560.66;;;1.03;100.00
24486;BME280;13449;49.374;8.584;2022-12-10T04:47:12;99554.31;;;1.04;100.00
24486;BME280;13449;49.374;8.584;2022-12-10T04:49:41;99558.81;;;1.03;100.00
24486;BME280;13449;49.374;8.584;2022-12-10T04:52:11;99557.13;;;1.02;100.00
24486;BME280;13449;49.374;8.584;2022-12-10T04:54:39;99566.03;;;1.03;100.00
24486;BME280;13449;49.374;8.584;2022-12-10T04:57:07;99564.06;;;1.05;100.00
24486;BME280;13449;49.374;8.584;2022-12-10T04:59:35;99561.66;;;1.02;100.00
24486;BME280;13449;49.374;8.584;2022-12-10T05:02:02;99560.84;;;1.01;100.00
24486;BME280;13449;49.374;8.584;2022-12-10T05:04:29;99574.09;;;1.03;100.00
24486;BME280;13449;49.374;8.584;2022-12-10T05:06:57;99572.38;;;1.02;100.00
24486;BME280;13449;49.374;8.584;2022-12-10T05:09:24;99561.81;;;1.00;100.00
24486;BME280;13449;49.374;8.584;2022-12-10T05:11:50;99565.47;;;0.99;100.00
24486;BME280;13449;49.374;8.584;2022-12-10T05:14:17;99570.97;;;0.97;100.00
24486;BME280;13449;49.374;8.584;2022-12-10T05:16:45;99574.38;;;1.00;100.00
24486;BME280;13449;49.374;8.584;2022-12-10T05:19:18;99588.66;;;1.00;100.00
24486;BME280;13449;49.374;8.584;2022-12-10T05:21:49;99588.66;;;1.00;100.00
24486;BME280;13449;49.374;8.584;2022-12-10T05:24:34;99591.47;;;0.98;100.00
24486;BME280;13449;49.374;8.584;2022-12-10T05:27:00;99587.09;;;0.97;100.00
24486;BME280;13449;49.374;8.584;2022-12-10T05:29:27;99589.63;;;0.99;100.00
24486;BME280;13449;49.374;8.584;2022-12-10T05:31:53;99584.41;;;0.97;100.00
24486;BME280;13449;49.374;8.584;2022-12-10T05:34:20;99587.94;;;0.98;100.00
24486;BME280;13449;49.374;8.584;2022-12-10T05:36:46;99592.44;;;0.97;100.00
24486;BME280;13449;49.374;8.584;2022-12-10T05:39:13;99592.44;;;0.97;100.00
24486;BME280;13449;49.374;8.584;2022-12-10T05:41:40;99595.00;;;0.99;100.00
24486;BME280;13449;49.374;8.584;2022-12-10T05:44:07;99596.84;;;0.98;100.00
24486;BME280;13449;49.374;8.584;2022-12-10T05:46:34;99595.13;;;0.97;100.00
24486;BME280;13449;49.374;8.584;2022-12-10T05:49:03;99594.31;;;0.97;100.00
24486;BME280;13449;49.374;8.584;2022-12-10T05:51:34;99602.19;;;0.98;100.00
24486;BME280;13449;49.374;8.584;2022-12-10T05:54:02;99597.81;;;0.97;100.00
24486;BME280;13449;49.374;8.584;2022-12-10T05:56:29;99592.44;;;0.97;100.00
24486;BME280;13449;49.374;8.584;2022-12-10T05:59:01;99596.16;;;0.96;100.00
24486;BME280;13449;49.374;8.584;2022-12-10T06:01:31;99595.31;;;0.96;100.00
24486;BME280;13449;49.374;8.584;2022-12-10T06:03:59;99598.97;;;0.95;100.00
24486;BME280;13449;49.374;8.584;2022-12-10T06:06:29;99605.19;;;0.95;100.00
24486;BME280;13449;49.374;8.584;2022-12-10T06:08:57;99596.44;;;0.93;100.00
24486;BME280;13449;49.374;8.584;2022-12-10T06:11:24;99610.69;;;0.94;100.00
24486;BME280;13449;49.374;8.584;2022-12-10T06:13:58;99611.69;;;0.93;100.00
24486;BME280;13449;49.374;8.584;2022-12-10T06:16:26;99616.22;;;0.92;100.00
24486;BME280;13449;49.374;8.584;2022-12-10T06:18:53;99611.84;;;0.91;100.00
24486;BME280;13449;49.374;8.584;2022-12-10T06:21:23;99620.72;;;0.92;100.00
24486;BME280;13449;49.374;8.584;2022-12-10T06:23:50;99616.22;;;0.92;100.00
24486;BME280;13449;49.374;8.584;2022-12-10T06:26:21;99619.88;;;0.91;100.00
24486;BME280;13449;49.374;8.584;2022-12-10T06:28:48;99623.41;;;0.92;100.00
24486;BME280;13449;49.374;8.584;2022-12-10T06:31:16;99623.53;;;0.90;100.00
24486;BME280;13449;49.374;8.584;2022-12-10T06:33:42;99630.78;;;0.90;100.00
24486;BME280;13449;49.374;8.584;2022-12-10T06:36:10;99632.63;;;0.89;100.00
24486;BME280;13449;49.374;8.584;2022-12-10T06:38:37;99634.28;;;0.90;100.00
24486;BME280;13449;49.374;8.584;2022-12-10T06:41:06;99635.44;;;0.88;100.00
24486;BME280;13449;49.374;8.584;2022-12-10T06:43:35;99636.28;;;0.88;100.00
24486;BME280;13449;49.374;8.584;2022-12-10T06:46:14;99640.78;;;0.88;100.00
24486;BME280;13449;49.374;8.584;2022-12-10T06:48:41;99644.63;;;0.85;100.00
24486;BME280;13449;49.374;8.584;2022-12-10T06:51:08;99644.63;;;0.85;100.00
24486;BME280;13449;49.374;8.584;2022-12-10T06:53:36;99643.91;;;0.83;100.00
24486;BME280;13449;49.374;8.584;2022-12-10T06:56:06;99652.69;;;0.85;100.00
24486;BME280;13449;49.374;8.584;2022-12-10T06:58:36;99649.28;;;0.83;100.00
24486;BME280;13449;49.374;8.584;2022-12-10T07:01:05;99652.97;;;0.82;100.00
24486;BME280;13449;49.374;8.584;2022-12-10T07:03:32;99648.28;;;0.84;100.00
24486;BME280;13449;49.374;8.584;2022-12-10T07:06:00;99639.69;;;0.81;100.00
24486;BME280;13449;49.374;8.584;2022-12-10T07:08:27;99651.41;;;0.80;100.00
24486;BME280;13449;49.374;8.584;2022-12-10T07:10:54;99647.88;;;0.79;100.00
24486;BME280;13449;49.374;8.584;2022-12-10T07:13:21;99655.06;;;0.79;100.00
24486;BME280;13449;49.374;8.584;2022-12-10T07:15:55;99656.09;;;0.78;100.00
24486;BME280;13449;49.374;8.584;2022-12-10T07:18:22;99658.59;;;0.79;100.00
24486;BME280;13449;49.374;8.584;2022-12-10T07:20:48;99659.63;;;0.78;100.00
24486;BME280;13449;49.374;8.584;2022-12-10T07:23:14;99669.31;;;0.79;100.00
24486;BME280;13449;49.374;8.584;2022-12-10T07:25:41;99670.19;;;0.80;100.00
24486;BME280;13449;49.374;8.584;2022-12-10T07:28:07;99671.16;;;0.79;100.00
24486;BME280;13449;49.374;8.584;2022-12-10T07:30:34;99675.53;;;0.80;100.00
24486;BME280;13449;49.374;8.584;2022-12-10T07:33:00;99679.09;;;0.80;100.00
24486;BME280;13449;49.374;8.584;2022-12-10T07:35:27;99685.16;;;0.82;100.00
24486;BME280;13449;49.374;8.584;2022-12-10T07:37:53;99678.78;;;0.83;100.00
24486;BME280;13449;49.374;8.584;2022-12-10T07:40:20;99684.31;;;0.82;100.00
24486;BME280;13449;49.374;8.584;2022-12-10T07:42:49;99690.53;;;0.82;100.00
24486;BME280;13449;49.374;8.584;2022-12-10T07:45:16;99695.31;;;0.79;99.51
24486;BME280;13449;49.374;8.584;2022-12-10T07:47:42;99695.19;;;0.80;99.70
24486;BME280;13449;49.374;8.584;2022-12-10T07:50:09;99694.19;;;0.81;100.00
24486;BME280;13449;49.374;8.584;2022-12-10T07:52:36;99697.44;;;0.85;100.00
24486;BME280;13449;49.374;8.584;2022-12-10T07:55:02;99703.78;;;0.84;99.92
24486;BME280;13449;49.374;8.584;2022-12-10T07:57:29;99709.16;;;0.84;99.71
24486;BME280;13449;49.374;8.584;2022-12-10T07:59:58;99715.50;;;0.83;99.67
24486;BME280;13449;49.374;8.584;2022-12-10T08:02:28;99712.25;;;0.79;99.28
24486;BME280;13449;49.374;8.584;2022-12-10T08:04:54;99710.84;;;0.85;99.61
24486;BME280;13449;49.374;8.584;2022-12-10T08:07:26;99720.88;;;0.83;98.43
24486;BME280;13449;49.374;8.584;2022-12-10T08:09:52;99724.81;;;0.88;99.05
24486;BME280;13449;49.374;8.584;2022-12-10T08:12:18;99723.13;;;0.87;98.12
24486;BME280;13449;49.374;8.584;2022-12-10T08:14:47;99715.78;;;0.89;98.93
24486;BME280;13449;49.374;8.584;2022-12-10T08:17:14;99725.25;;;0.93;98.62
24486;BME280;13449;49.374;8.584;2022-12-10T08:19:42;99726.78;;;0.96;98.53
24486;BME280;13449;49.374;8.584;2022-12-10T08:22:09;99737.53;;;0.96;97.76
24486;BME280;13449;49.374;8.584;2022-12-10T08:24:38;99728.06;;;0.92;96.82
24486;BME280;13449;49.374;8.584;2022-12-10T08:27:04;99728.63;;;0.95;97.03
24486;BME280;13449;49.374;8.584;2022-12-10T08:29:31;99733.00;;;0.96;96.81
24486;BME280;13449;49.374;8.584;2022-12-10T08:31:59;99734.00;;;0.95;95.91
24486;BME280;13449;49.374;8.584;2022-12-10T08:34:26;99738.38;;;0.96;96.05
24486;BME280;13449;49.374;8.584;2022-12-10T08:36:52;99736.38;;;0.98;95.44
24486;BME280;13449;49.374;8.584;2022-12-10T08:39:19;99730.72;;;1.02;95.66
24486;BME280;13449;49.374;8.584;2022-12-10T08:41:46;99724.38;;;1.03;95.49
24486;BME280;13449;49.374;8.584;2022-12-10T08:44:13;99732.72;;;1.00;94.87
24486;BME280;13449;49.374;8.584;2022-12-10T08:46:40;99738.06;;;1.09;95.16
24486;BME280;13449;49.374;8.584;2022-12-10T08:49:06;99744.56;;;1.07;94.12
24486;BME280;13449;49.374;8.584;2022-12-10T08:51:33;99740.59;;;1.11;93.91
24486;BME280;13449;49.374;8.584;2022-12-10T08:54:02;99740.31;;;1.14;94.29
24486;BME280;13449;49.374;8.584;2022-12-10T08:56:28;99741.44;;;1.21;94.10
24486;BME280;13449;49.374;8.584;2022-12-10T08:58:55;99738.44;;;1.24;94.51
24486;BME280;13449;49.374;8.584;2022-12-10T09:01:21;99742.13;;;1.23;93.21
24486;BME280;13449;49.374;8.584;2022-12-10T09:03:48;99738.75;;;1.21;93.52
24486;BME280;13449;49.374;8.584;2022-12-10T09:06:19;99737.75;;;1.22;92.85
24486;BME280;13449;49.374;8.584;2022-12-10T09:08:46;99742.69;;;1.17;92.64
24486;BME280;13449;49.374;8.584;2022-12-10T09:11:22;99744.09;;;1.21;93.80
24486;BME280;13449;49.374;8.584;2022-12-10T09:13:52;99749.34;;;1.22;93.71
24486;BME280;13449;49.374;8.584;2022-12-10T09:16:18;99746.97;;;1.19;92.85
24486;BME280;13449;49.374;8.584;2022-12-10T09:18:48;99745.69;;;1.14;92.75
24486;BME280;13449;49.374;8.584;2022-12-10T09:21:16;99753.72;;;1.14;93.24
24486;BME280;13449;49.374;8.584;2022-12-10T09:23:43;99755.44;;;1.15;93.42
24486;BME280;13449;49.374;8.584;2022-12-10T09:26:13;99758.97;;;1.15;93.54
24486;BME280;13449;49.374;8.584;2022-12-10T09:28:40;99758.81;;;1.17;93.90
24486;BME280;13449;49.374;8.584;2022-12-10T09:31:07;99765.03;;;1.17;93.59
24486;BME280;13449;49.374;8.584;2022-12-10T09:33:46;99753.88;;;1.22;93.54
24486;BME280;13449;49.374;8.584;2022-12-10T09:36:13;99765.03;;;1.27;93.54
24486;BME280;13449;49.374;8.584;2022-12-10T09:38:42;99761.75;;;1.33;93.31
24486;BME280;13449;49.374;8.584;2022-12-10T09:44:36;99766.69;;;1.37;92.78
24486;BME280;13449;49.374;8.584;2022-12-10T09:47:08;99764.13;;;1.36;92.92
24486;BME280;13449;49.374;8.584;2022-12-10T09:52:25;99762.84;;;1.40;92.28
24486;BME280;13449;49.374;8.584;2022-12-10T09:54:56;99760.19;;;1.40;91.80
24486;BME280;13449;49.374;8.584;2022-12-10T09:57:32;99759.03;;;1.42;92.29
24486;BME280;13449;49.374;8.584;2022-12-10T10:00:09;99762.56;;;1.43;92.14
24486;BME280;13449;49.374;8.584;2022-12-10T10:02:41;99760.16;;;1.50;92.10
24486;BME280;13449;49.374;8.584;2022-12-10T10:07:46;99756.75;;;1.57;90.65
24486;BME280;13449;49.374;8.584;2022-12-10T10:10:21;99767.56;;;1.65;90.17
24486;BME280;13449;49.374;8.584;2022-12-10T10:12:53;99769.69;;;1.71;89.92
24486;BME280;13449;49.374;8.584;2022-12-10T10:15:30;99764.16;;;1.73;90.36
24486;BME280;13449;49.374;8.584;2022-12-10T10:18:02;99766.47;;;1.68;89.78
24486;BME280;13449;49.374;8.584;2022-12-10T10:20:31;99772.25;;;1.63;89.66
24486;BME280;13449;49.374;8.584;2022-12-10T10:22:58;99777.34;;;1.66;89.75
24486;BME280;13449;49.374;8.584;2022-12-10T10:25:27;99773.38;;;1.70;90.39
24486;BME280;13449;49.374;8.584;2022-12-10T10:27:55;99777.03;;;1.69;89.83
24486;BME280;13449;49.374;8.584;2022-12-10T10:30:22;99775.06;;;1.71;90.15
24486;BME280;13449;49.374;8.584;2022-12-10T10:32:52;99775.06;;;1.71;89.36
24486;BME280;13449;49.374;8.584;2022-12-10T10:35:31;99781.97;;;1.74;89.04
24486;BME280;13449;49.374;8.584;2022-12-10T10:38:23;99780.13;;;1.74;89.32
24486;BME280;13449;49.374;8.584;2022-12-10T10:40:51;99785.22;;;1.77;88.66
24486;BME280;13449;49.374;8.584;2022-12-10T10:43:56;99779.41;;;1.82;88.93
24486;BME280;13449;49.374;8.584;2022-12-10T10:46:21;99784.03;;;1.89;88.16
24486;BME280;13449;49.374;8.584;2022-12-10T10:48:48;99785.75;;;1.90;87.70
24486;BME280;13449;49.374;8.584;2022-12-10T10:51:20;99790.38;;;1.98;87.34
24486;BME280;13449;49.374;8.584;2022-12-10T10:53:48;99783.41;;;2.05;87.45
24486;BME280;13449;49.374;8.584;2022-12-10T11:01:20;99782.81;;;2.11;86.05
24486;BME280;13449;49.374;8.584;2022-12-10T11:03:55;99787.88;;;2.14;85.54
24486;BME280;13449;49.374;8.584;2022-12-10T11:06:23;99796.22;;;2.21;85.92
24486;BME280;13449;49.374;8.584;2022-12-10T11:08:55;99795.28;;;2.30;85.44
24486;BME280;13449;49.374;8.584;2022-12-10T11:11:40;99792.47;;;2.31;84.68
24486;BME280;13449;49.374;8.584;2022-12-10T11:17:00;99795.09;;;2.41;83.89
24486;BME280;13449;49.374;8.584;2022-12-10T11:19:27;99784.88;;;2.44;84.29
24486;BME280;13449;49.374;8.584;2022-12-10T11:21:54;99789.94;;;2.48;84.87
24486;BME280;13449;49.374;8.584;2022-12-10T11:24:21;99796.72;;;2.52;84.52
24486;BME280;13449;49.374;8.584;2022-12-10T11:27:08;99788.81;;;2.50;84.65
24486;BME280;13449;49.374;8.584;2022-12-10T11:29:52;99792.56;;;2.57;84.67
24486;BME280;13449;49.374;8.584;2022-12-10T11:32:39;99782.81;;;2.56;84.10
24486;BME280;13449;49.374;8.584;2022-12-10T11:40:42;99791.31;;;2.52;83.96
24486;BME280;13449;49.374;8.584;2022-12-10T11:54:31;99805.00;;;2.40;82.23
24486;BME280;13449;49.374;8.584;2022-12-10T12:05:26;99799.13;;;2.72;81.95
24486;BME280;13449;49.374;8.584;2022-12-10T12:11:24;99811.19;;;2.68;82.11
24486;BME280;13449;49.374;8.584;2022-12-10T12:16:50;99826.34;;;2.69;81.47
24486;BME280;13449;49.374;8.584;2022-12-10T12:19:25;99818.41;;;2.68;81.64
24486;BME280;13449;49.374;8.584;2022-12-10T12:22:00;99815.88;;;2.66;82.09
24486;BME280;13449;49.374;8.584;2022-12-10T12:24:37;99820.72;;;2.63;81.86
24486;BME280;13449;49.374;8.584;2022-12-10T12:27:22;99821.81;;;2.70;81.96
24486;BME280;13449;49.374;8.584;2022-12-10T12:30:12;99811.66;;;2.81;82.09
24486;BME280;13449;49.374;8.584;2022-12-10T12:38:06;99816.44;;;2.87;81.89
24486;BME280;13449;49.374;8.584;2022-12-10T12:40:43;99811.06;;;2.87;82.01
24486;BME280;13449;49.374;8.584;2022-12-10T12:43:24;99812.97;;;2.77;81.42
24486;BME280;13449;49.374;8.584;2022-12-10T12:45:54;99822.63;;;2.70;81.45
24486;BME280;13449;49.374;8.584;2022-12-10T12:48:46;99814.50;;;2.62;81.67
24486;BME280;13449;49.374;8.584;2022-12-10T12:51:20;99819.63;;;2.56;81.67
24486;BME280;13449;49.374;8.584;2022-12-10T12:53:49;99818.63;;;2.57;82.61
24486;BME280;13449;49.374;8.584;2022-12-10T12:59:34;99817.19;;;2.62;82.82
24486;BME280;13449;49.374;8.584;2022-12-10T13:02:23;99827.88;;;2.72;81.79
24486;BME280;13449;49.374;8.584;2022-12-10T13:04:53;99836.19;;;2.78;80.54
24486;BME280;13449;49.374;8.584;2022-12-10T13:15:14;99839.13;;;3.03;80.57
24486;BME280;13449;49.374;8.584;2022-12-10T13:20:49;99836.53;;;3.11;80.31
24486;BME280;13449;49.374;8.584;2022-12-10T13:36:37;99864.66;;;3.16;78.12
24486;BME280;13449;49.374;8.584;2022-12-10T13:39:47;99849.91;;;3.03;79.37
24486;BME280;13449;49.374;8.584;2022-12-10T13:42:26;99860.59;;;2.95;79.05
24486;BME280;13449;49.374;8.584;2022-12-10T13:47:55;99853.28;;;3.05;79.21
24486;BME280;13449;49.374;8.584;2022-12-10T13:53:45;99861.97;;;2.99;80.24
24486;BME280;13449;49.374;8.584;2022-12-10T13:56:26;99863.59;;;2.91;79.87
24486;BME280;13449;49.374;8.584;2022-12-10T14:01:38;99868.38;;;2.70;80.74
24486;BME280;13449;49.374;8.584;2022-12-10T14:07:12;99886.69;;;2.67;80.45
24486;BME280;13449;49.374;8.584;2022-12-10T14:09:59;99885.84;;;2.66;81.14
24486;BME280;13449;49.374;8.584;2022-12-10T14:12:33;99889.13;;;2.60;80.67
24486;BME280;13449;49.374;8.584;2022-12-10T14:15:03;99893.84;;;2.58;81.14
24486;BME280;13449;49.374;8.584;2022-12-10T14:17:38;99887.06;;;2.54;80.80
24486;BME280;13449;49.374;8.584;2022-12-10T14:20:07;99892.75;;;2.51;80.87
24486;BME280;13449;49.374;8.584;2022-12-10T14:22:39;99892.56;;;2.53;81.75
24486;BME280;13449;49.374;8.584;2022-12-10T14:25:20;99896.41;;;2.50;81.51
24486;BME280;13449;49.374;8.584;2022-12-10T14:27:52;99912.56;;;2.50;81.50
24486;BME280;13449;49.374;8.584;2022-12-10T14:32:51;99903.94;;;2.47;82.39
24486;BME280;13449;49.374;8.584;2022-12-10T14:35:22;99913.13;;;2.44;81.88
24486;BME280;13449;49.374;8.584;2022-12-10T14:37:52;99911.75;;;2.40;81.90
24486;BME280;13449;49.374;8.584;2022-12-10T14:40:31;99905.81;;;2.36;81.96
24486;BME280;13449;49.374;8.584;2022-12-10T14:43:46;99912.66;;;2.31;80.99
24486;BME280;13449;49.374;8.584;2022-12-10T14:46:18;99922.13;;;2.25;81.54
24486;BME280;13449;49.374;8.584;2022-12-10T14:48:50;99920.28;;;2.26;82.01
24486;BME280;13449;49.374;8.584;2022-12-10T14:51:20;99922.31;;;2.24;82.72
24486;BME280;13449;49.374;8.584;2022-12-10T14:53:49;99928.97;;;2.20;82.05
24486;BME280;13449;49.374;8.584;2022-12-10T14:56:23;99932.94;;;2.16;82.46
24486;BME280;13449;49.374;8.584;2022-12-10T14:59:04;99938.44;;;2.14;82.32
24486;BME280;13449;49.374;8.584;2022-12-10T15:01:38;99932.81;;;2.08;82.46
24486;BME280;13449;49.374;8.584;2022-12-10T15:04:13;99935.78;;;2.05;82.34
24486;BME280;13449;49.374;8.584;2022-12-10T15:06:51;99936.38;;;1.99;83.09
24486;BME280;13449;49.374;8.584;2022-12-10T15:09:20;99945.56;;;1.96;82.41
24486;BME280;13449;49.374;8.584;2022-12-10T15:11:55;99940.78;;;1.90;82.74
24486;BME280;13449;49.374;8.584;2022-12-10T15:14:26;99936.97;;;1.83;83.60
24486;BME280;13449;49.374;8.584;2022-12-10T15:16:55;99942.66;;;1.80;84.36
24486;BME280;13449;49.374;8.584;2022-12-10T15:22:00;99948.88;;;1.71;84.93
24486;BME280;13449;49.374;8.584;2022-12-10T15:24:35;99948.44;;;1.66;85.32